Time;durP1;ratioP1;P1;durP2;ratioP2;P2;SDS_P1;SDS_P2;PMS_P1;PMS_P2;Temp;Humidity;BMP_temperature;BMP_pressure;BME280_temperature;BME280_humidity;BME280_pressure;Samples;Min_cycle;Max_cycle;Signal;HPM_P1;HPM_P2
2022/12/19 00:02:41;;;;;;;61.53;20.77;;;;;-2.40;97340.00;;;;8342038;28;20228;-70
2022/12/19 00:06:46;;;;;;;61.40;21.77;;;;;-2.40;97358.00;;;;8341881;28;20189;-71
2022/12/19 00:10:55;;;;;;;59.10;22.20;;;;;-2.30;97343.00;;;;8355400;28;20216;-71
2022/12/19 00:15:12;;;;;;;62.13;21.87;;;;;-2.20;97353.00;;;;8339745;28;20644;-72
2022/12/19 00:19:17;;;;;;;55.27;21.20;;;;;-2.30;97351.00;;;;8349362;28;20224;-71
2022/12/19 00:23:20;;;;;;;56.87;20.60;;;;;-2.30;97359.00;;;;8345293;28;20227;-71
2022/12/19 00:27:23;;;;;;;58.00;22.00;;;;;-2.30;97379.00;;;;8355763;28;20200;-72
2022/12/19 00:31:28;;;;;;;68.43;22.07;;;;;-2.30;97392.00;;;;8364007;28;20224;-71
2022/12/19 00:35:33;;;;;;;62.53;22.63;;;;;-2.20;97391.00;;;;8345511;28;20196;-73
2022/12/19 00:39:36;;;;;;;61.13;22.10;;;;;-2.30;97375.00;;;;8350420;28;20720;-72
2022/12/19 00:43:39;;;;;;;60.90;22.17;;;;;-2.20;97359.00;;;;8341880;28;20197;-72
2022/12/19 00:47:42;;;;;;;63.80;21.53;;;;;-2.20;97356.00;;;;8350785;28;20200;-72
2022/12/19 00:51:47;;;;;;;67.73;22.00;;;;;-2.20;97351.00;;;;8353916;28;20225;-73
2022/12/19 00:55:50;;;;;;;52.10;19.73;;;;;-2.20;97325.00;;;;8349814;28;20279;-72
2022/12/19 00:59:53;;;;;;;62.70;21.97;;;;;-2.20;97316.00;;;;8345478;28;20212;-72
2022/12/19 01:03:58;;;;;;;58.17;21.90;;;;;-2.20;97306.00;;;;8346035;28;20690;-72
2022/12/19 01:08:22;;;;;;;61.23;21.03;;;;;-2.20;97299.00;;;;8331042;28;20203;-72
2022/12/19 01:12:45;;;;;;;70.47;22.73;;;;;-2.30;97310.00;;;;8348417;28;20232;-71
2022/12/19 01:16:49;;;;;;;70.37;22.60;;;;;-2.30;97312.00;;;;8345588;28;20234;-71
2022/12/19 01:20:52;;;;;;;59.10;21.57;;;;;-2.30;97295.00;;;;8345117;28;20200;-71
2022/12/19 01:24:56;;;;;;;64.57;22.77;;;;;-2.30;97321.00;;;;8349567;28;20210;-71
2022/12/19 01:29:00;;;;;;;49.30;19.17;;;;;-2.30;97317.00;;;;8336696;28;20205;-71
2022/12/19 01:33:03;;;;;;;64.37;22.47;;;;;-2.30;97324.00;;;;8347591;28;20209;-71
2022/12/19 01:37:06;;;;;;;60.17;21.70;;;;;-2.30;97329.00;;;;8347035;28;20209;-71
2022/12/19 01:41:11;;;;;;;57.97;21.17;;;;;-2.20;97318.00;;;;8344046;28;20212;-72
2022/12/19 01:45:27;;;;;;;56.87;19.10;;;;;-2.20;97283.00;;;;8340267;28;20809;-72
2022/12/19 01:49:37;;;;;;;63.23;21.67;;;;;-2.20;97274.00;;;;8336993;28;20232;-73
2022/12/19 01:53:44;;;;;;;70.03;23.20;;;;;-2.20;97247.00;;;;8343499;28;20257;-72
2022/12/19 01:57:54;;;;;;;58.37;20.37;;;;;-2.30;97318.00;;;;8341204;28;20297;-73
2022/12/19 02:02:01;;;;;;;58.33;20.70;;;;;-2.20;97311.00;;;;8341337;28;20221;-72
2022/12/19 02:06:07;;;;;;;61.57;22.80;;;;;-2.20;97291.00;;;;8341381;28;20201;-72
2022/12/19 02:10:11;;;;;;;65.50;22.77;;;;;-2.20;97290.00;;;;8338723;28;20228;-74
2022/12/19 02:14:15;;;;;;;61.83;23.10;;;;;-2.20;97293.00;;;;8339743;28;20213;-73
2022/12/19 02:18:27;;;;;;;70.20;23.40;;;;;-2.10;97291.00;;;;8340452;28;20197;-72
2022/12/19 02:22:41;;;;;;;63.30;22.33;;;;;-2.20;97296.00;;;;8354768;28;20209;-73
2022/12/19 02:27:13;;;;;;;67.57;22.07;;;;;-2.20;97291.00;;;;8339893;28;20197;-72
2022/12/19 02:31:21;;;;;;;64.57;22.43;;;;;-2.20;97290.00;;;;8350574;28;20285;-72
2022/12/19 02:35:33;;;;;;;66.57;23.07;;;;;-2.20;97297.00;;;;8348128;28;20201;-72
2022/12/19 02:39:44;;;;;;;73.40;22.23;;;;;-2.20;97303.00;;;;8353403;28;20284;-71
2022/12/19 02:43:50;;;;;;;61.60;21.50;;;;;-2.10;97301.00;;;;8350057;28;20189;-73
2022/12/19 02:48:04;;;;;;;63.70;21.20;;;;;-2.10;97300.00;;;;8345384;28;20260;-72
2022/12/19 02:52:12;;;;;;;62.03;20.97;;;;;-2.10;97296.00;;;;8347005;28;20213;-73
2022/12/19 02:56:25;;;;;;;68.63;22.93;;;;;-2.10;97298.00;;;;8347534;28;20212;-72
2022/12/19 03:00:29;;;;;;;60.97;22.40;;;;;-2.10;97304.00;;;;8381883;22;20635;-72
2022/12/19 03:04:44;;;;;;;71.17;22.60;;;;;-2.00;97326.00;;;;8343132;22;20236;-71
2022/12/19 03:08:52;;;;;;;66.57;22.80;;;;;-2.00;97320.00;;;;8349754;28;20558;-73
2022/12/19 03:13:05;;;;;;;66.73;22.53;;;;;-2.00;97306.00;;;;8351464;28;20212;-71
2022/12/19 03:17:09;;;;;;;73.63;23.23;;;;;-2.00;97323.00;;;;8337953;28;20772;-72
2022/12/19 03:21:20;;;;;;;66.70;23.10;;;;;-1.90;97336.00;;;;8351696;28;20262;-74
2022/12/19 03:25:25;;;;;;;68.50;23.63;;;;;-1.80;97343.00;;;;8343880;28;20193;-71
2022/12/19 03:29:32;;;;;;;73.07;22.63;;;;;-1.80;97345.00;;;;8343538;28;20249;-71
2022/12/19 03:33:38;;;;;;;68.20;23.37;;;;;-1.80;97323.00;;;;8345913;28;20228;-70
2022/12/19 03:37:44;;;;;;;69.00;22.10;;;;;-1.80;97313.00;;;;8343588;28;20197;-70
2022/12/19 03:46:14;;;;;;;66.23;23.97;;;;;-1.90;97284.00;;;;8339170;28;20201;-71
2022/12/19 03:50:17;;;;;;;75.47;23.90;;;;;-1.90;97291.00;;;;8346740;28;20273;-72
2022/12/19 03:54:28;;;;;;;81.17;25.57;;;;;-1.90;97303.00;;;;8355470;28;20216;-70
2022/12/19 03:58:36;;;;;;;66.03;21.60;;;;;-1.90;97320.00;;;;8345231;28;20769;-70
2022/12/19 04:02:42;;;;;;;68.93;23.77;;;;;-1.90;97307.00;;;;8340586;28;20221;-70
2022/12/19 04:06:47;;;;;;;74.43;24.97;;;;;-2.00;97303.00;;;;8346693;28;20241;-73
2022/12/19 04:10:55;;;;;;;74.47;24.97;;;;;-2.00;97313.00;;;;8348843;28;20232;-71
2022/12/19 04:14:58;;;;;;;61.27;19.67;;;;;-2.00;97375.00;;;;8339320;28;20198;-71
2022/12/19 04:19:09;;;;;;;70.87;23.17;;;;;-2.10;97330.00;;;;8344649;28;20197;-72
2022/12/19 04:23:18;;;;;;;70.30;23.17;;;;;-2.10;97366.00;;;;8341305;28;20571;-71
2022/12/19 04:27:23;;;;;;;72.23;22.97;;;;;-2.10;97331.00;;;;8338456;28;20252;-70
2022/12/19 04:31:26;;;;;;;76.97;23.63;;;;;-2.10;97378.00;;;;8352662;28;20220;-71
2022/12/19 04:35:29;;;;;;;86.80;25.67;;;;;-2.00;97336.00;;;;8346691;28;20201;-70
2022/12/19 04:39:33;;;;;;;72.23;22.30;;;;;-2.00;97376.00;;;;8350382;28;20313;-70
2022/12/19 04:43:37;;;;;;;78.73;24.97;;;;;-2.10;97372.00;;;;8341683;28;20548;-71
2022/12/19 04:47:40;;;;;;;71.87;24.47;;;;;-2.00;97355.00;;;;8338832;28;20208;-73
2022/12/19 04:51:44;;;;;;;82.37;26.87;;;;;-2.00;97327.00;;;;8344278;28;20220;-71
2022/12/19 04:55:47;;;;;;;74.90;24.30;;;;;-2.00;97318.00;;;;8350715;28;20196;-71
2022/12/19 04:59:53;;;;;;;90.07;27.03;;;;;-2.00;97321.00;;;;8342216;28;20379;-73
2022/12/19 05:09:26;;;;;;;83.50;25.70;;;;;-2.10;97302.00;;;;8364512;28;20259;-70
2022/12/19 05:13:53;;;;;;;88.13;27.43;;;;;-2.10;97252.00;;;;8229424;28;20699;-69
2022/12/19 05:17:58;;;;;;;86.50;28.60;;;;;-2.10;97239.00;;;;8317597;28;20683;-70
2022/12/19 05:27:25;;;;;;;79.93;25.43;;;;;-2.10;97236.00;;;;8362797;28;20209;-69
2022/12/19 05:31:59;;;;;;;85.43;26.97;;;;;-2.10;97262.00;;;;8362633;28;20260;-70
2022/12/19 05:36:37;;;;;;;94.87;26.43;;;;;-2.00;97280.00;;;;8363880;28;20243;-70
2022/12/19 05:41:12;;;;;;;66.67;23.57;;;;;-2.00;97325.00;;;;8363661;28;20261;-70
2022/12/19 05:45:55;;;;;;;76.57;24.13;;;;;-1.90;97334.00;;;;8360690;28;20208;-70
2022/12/19 05:50:32;;;;;;;72.50;25.20;;;;;-1.80;97313.00;;;;8363181;28;20236;-70
2022/12/19 05:55:08;;;;;;;75.80;25.53;;;;;-1.80;97330.00;;;;8363989;28;20247;-71
2022/12/19 05:59:46;;;;;;;82.60;25.53;;;;;-1.80;97317.00;;;;8362669;28;20247;-71
2022/12/19 06:03:50;;;;;;;94.00;26.13;;;;;-1.80;97320.00;;;;8363732;28;20218;-71
2022/12/19 06:07:54;;;;;;;80.13;26.43;;;;;-1.70;97338.00;;;;8363432;28;20196;-71
2022/12/19 06:12:27;;;;;;;78.70;24.87;;;;;-1.70;97343.00;;;;8369812;28;20224;-71
2022/12/19 06:16:32;;;;;;;87.13;25.40;;;;;-1.70;97349.00;;;;8369564;28;20199;-71
2022/12/19 06:20:36;;;;;;;74.00;24.80;;;;;-1.70;97359.00;;;;8370476;28;20573;-70
2022/12/19 06:24:39;;;;;;;83.40;22.90;;;;;-1.60;97340.00;;;;8370053;28;20648;-71
2022/12/19 06:28:42;;;;;;;76.43;24.23;;;;;-1.60;97323.00;;;;8369027;28;20193;-71
2022/12/19 06:33:28;;;;;;;79.47;25.37;;;;;-1.60;97315.00;;;;8368219;28;20224;-71
2022/12/19 06:38:05;;;;;;;81.27;25.63;;;;;-1.60;97319.00;;;;8369691;28;20243;-71
2022/12/19 06:42:44;;;;;;;75.53;24.13;;;;;-1.50;97333.00;;;;8368711;28;20240;-71
2022/12/19 06:47:18;;;;;;;196.73;118.37;;;;;-1.50;97355.00;;;;8368984;28;20604;-72
2022/12/19 06:51:52;;;;;;;81.03;27.13;;;;;-1.50;97359.00;;;;8368195;28;20217;-71
2022/12/19 06:55:57;;;;;;;82.70;34.50;;;;;-1.50;97352.00;;;;8369430;28;20189;-71
2022/12/19 07:00:31;;;;;;;87.30;27.77;;;;;-1.50;97336.00;;;;8368485;28;20193;-71
2022/12/19 07:05:10;;;;;;;82.80;30.07;;;;;-1.40;97335.00;;;;8368391;28;20227;-70
2022/12/19 07:09:13;;;;;;;90.23;31.70;;;;;-1.40;97330.00;;;;8368449;28;20201;-71
2022/12/19 07:13:50;;;;;;;85.37;26.53;;;;;-1.30;97327.00;;;;8367617;28;20217;-72
2022/12/19 07:18:27;;;;;;;170.37;83.07;;;;;-1.20;97310.00;;;;8368086;28;20196;-72
2022/12/19 07:23:06;;;;;;;328.03;154.10;;;;;-1.10;97324.00;;;;8367764;28;20192;-72
2022/12/19 07:27:43;;;;;;;85.93;28.10;;;;;-1.10;97315.00;;;;8366949;28;20197;-72
2022/12/19 07:32:20;;;;;;;106.27;42.63;;;;;-1.10;97332.00;;;;8368356;28;20286;-72
2022/12/19 07:36:57;;;;;;;82.50;27.10;;;;;-1.00;97328.00;;;;8366911;28;20190;-72
2022/12/19 07:41:38;;;;;;;194.67;71.40;;;;;-0.90;97336.00;;;;8366566;28;20255;-72
2022/12/19 07:46:12;;;;;;;89.90;33.07;;;;;-0.80;97335.00;;;;8368352;28;20529;-72
2022/12/19 07:50:49;;;;;;;84.23;29.83;;;;;-0.80;97349.00;;;;8366585;28;20201;-72
2022/12/19 07:55:26;;;;;;;82.53;29.60;;;;;-0.70;97349.00;;;;8366638;28;20229;-72
2022/12/19 08:00:05;;;;;;;87.23;27.30;;;;;-0.70;97344.00;;;;8366244;28;20239;-72
2022/12/19 08:04:40;;;;;;;87.63;26.47;;;;;-0.60;97353.00;;;;8366652;28;20213;-71
2022/12/19 08:08:44;;;;;;;76.53;28.83;;;;;-0.50;97345.00;;;;8366050;28;20209;-71
2022/12/19 08:13:21;;;;;;;87.80;28.57;;;;;-0.40;97359.00;;;;8366355;28;20506;-72
2022/12/19 08:18:00;;;;;;;92.07;34.17;;;;;-0.10;97356.00;;;;8365447;28;20255;-71
2022/12/19 08:22:34;;;;;;;88.03;28.50;;;;;0.10;97354.00;;;;8366550;28;20580;-71
2022/12/19 08:27:10;;;;;;;83.07;27.93;;;;;0.30;97354.00;;;;8365563;28;20193;-71
2022/12/19 08:31:16;;;;;;;84.60;26.67;;;;;0.30;97346.00;;;;8365401;28;20259;-71
2022/12/19 08:35:50;;;;;;;80.10;27.33;;;;;0.30;97339.00;;;;8364665;28;20674;-73
2022/12/19 08:40:28;;;;;;;73.53;25.60;;;;;0.50;97344.00;;;;8365629;28;20227;-72
2022/12/19 08:45:01;;;;;;;84.63;25.87;;;;;0.60;97336.00;;;;8365319;28;20522;-73
2022/12/19 08:49:04;;;;;;;103.47;42.83;;;;;0.60;97332.00;;;;8366209;28;20193;-71
2022/12/19 08:53:42;;;;;;;78.93;26.13;;;;;0.70;97339.00;;;;8364627;28;20254;-72
2022/12/19 08:58:20;;;;;;;75.60;26.33;;;;;0.70;97332.00;;;;8365589;28;20199;-72
2022/12/19 09:02:54;;;;;;;70.17;24.20;;;;;0.70;97313.00;;;;8365510;28;20275;-72
2022/12/19 09:07:33;;;;;;;75.47;23.87;;;;;0.70;97310.00;;;;8364789;28;20210;-73
2022/12/19 09:12:08;;;;;;;83.97;27.67;;;;;0.80;97321.00;;;;8333405;28;20199;-73
2022/12/19 09:16:15;;;;;;;74.83;26.33;;;;;0.90;97316.00;;;;8331152;28;20189;-73
2022/12/19 09:20:46;;;;;;;70.27;22.97;;;;;0.90;97308.00;;;;8330038;28;20195;-73
2022/12/19 09:25:23;;;;;;;71.07;24.63;;;;;0.90;97324.00;;;;8332120;28;20650;-73
2022/12/19 09:30:01;;;;;;;75.77;25.10;;;;;0.90;97326.00;;;;8331311;28;20199;-73
2022/12/19 09:34:41;;;;;;;78.30;24.60;;;;;1.00;97324.00;;;;8331095;28;20228;-72
2022/12/19 09:39:18;;;;;;;74.57;25.17;;;;;1.00;97303.00;;;;8330362;28;20207;-73
2022/12/19 09:44:01;;;;;;;72.97;24.37;;;;;1.00;97296.00;;;;8331806;28;20196;-72
2022/12/19 09:48:32;;;;;;;84.30;25.90;;;;;1.00;97308.00;;;;8337984;28;20215;-73
2022/12/19 09:53:13;;;;;;;75.63;25.17;;;;;1.10;97305.00;;;;8336544;28;20225;-73
2022/12/19 09:57:47;;;;;;;68.57;23.77;;;;;1.20;97306.00;;;;8336172;28;20650;-73
2022/12/19 10:01:56;;;;;;;71.90;24.77;;;;;1.40;97298.00;;;;8337106;28;20188;-74
2022/12/19 10:06:24;;;;;;;72.77;23.47;;;;;1.40;97313.00;;;;8336280;28;20594;-73
2022/12/19 10:11:00;;;;;;;55.97;21.73;;;;;1.50;97321.00;;;;8337356;28;20530;-70
2022/12/19 10:15:28;;;;;;;70.87;25.77;;;;;1.60;97295.00;;;;8335960;28;20227;-70
2022/12/19 10:20:11;;;;;;;72.10;24.73;;;;;1.70;97303.00;;;;8334714;28;20226;-71
2022/12/19 10:24:44;;;;;;;67.57;24.13;;;;;1.70;97293.00;;;;8335591;28;20226;-70
2022/12/19 10:29:38;;;;;;;66.33;24.07;;;;;1.80;97304.00;;;;8335082;28;20515;-71
2022/12/19 10:33:59;;;;;;;60.47;22.63;;;;;2.00;97304.00;;;;8333339;28;20314;-70
2022/12/19 10:38:29;;;;;;;79.93;25.33;;;;;2.10;97305.00;;;;8333602;28;20284;-71
2022/12/19 10:43:07;;;;;;;65.20;23.40;;;;;2.20;97309.00;;;;8335998;28;20773;-70
2022/12/19 10:47:42;;;;;;;65.30;24.40;;;;;2.20;97311.00;;;;8335304;28;20635;-71
2022/12/19 10:52:16;;;;;;;72.50;25.23;;;;;2.30;97307.00;;;;8335134;28;20201;-70
2022/12/19 10:56:52;;;;;;;59.97;21.50;;;;;2.30;97299.00;;;;8333324;28;20195;-69
2022/12/19 11:01:32;;;;;;;62.63;24.63;;;;;2.30;97283.00;;;;8335029;28;20235;-69
2022/12/19 11:06:28;;;;;;;63.77;25.37;;;;;2.30;97281.00;;;;8333685;28;20226;-71
2022/12/19 11:11:15;;;;;;;60.00;23.07;;;;;2.40;97260.00;;;;8334651;28;20205;-71
2022/12/19 11:21:18;;;;;;;64.77;24.23;;;;;2.50;97246.00;;;;8334739;28;20534;-71
2022/12/19 11:25:54;;;;;;;60.50;23.57;;;;;2.50;97228.00;;;;8334544;28;20196;-71
2022/12/19 11:30:56;;;;;;;70.07;25.20;;;;;2.50;97229.00;;;;8334879;28;20200;-71
2022/12/19 11:35:48;;;;;;;60.63;24.60;;;;;2.50;97230.00;;;;8333742;28;20224;-72
2022/12/19 11:40:15;;;;;;;63.73;23.83;;;;;2.40;97231.00;;;;8333914;28;20330;-71
2022/12/19 11:44:48;;;;;;;60.27;23.93;;;;;2.40;97230.00;;;;8333170;28;20231;-71
2022/12/19 11:49:27;;;;;;;65.33;25.50;;;;;2.40;97218.00;;;;8334421;28;20629;-71
2022/12/19 11:54:00;;;;;;;59.17;22.23;;;;;2.40;97200.00;;;;8333175;28;20221;-72
2022/12/19 11:58:39;;;;;;;61.87;24.50;;;;;2.40;97203.00;;;;8332497;28;20201;-71
2022/12/19 12:03:24;;;;;;;60.20;23.87;;;;;2.50;97209.00;;;;8332079;28;20215;-71
2022/12/19 12:07:55;;;;;;;62.20;23.87;;;;;2.50;97209.00;;;;8328917;28;20615;-71
2022/12/19 12:12:33;;;;;;;60.90;22.17;;;;;2.50;97192.00;;;;8333403;28;20200;-71
2022/12/19 12:17:25;;;;;;;66.23;24.27;;;;;2.50;97187.00;;;;8332839;28;20193;-71
2022/12/19 12:22:37;;;;;;;62.33;23.67;;;;;2.60;97183.00;;;;8332719;28;20196;-71
2022/12/19 12:27:41;;;;;;;50.63;19.43;;;;;2.60;97195.00;;;;8332881;28;20583;-71
2022/12/19 12:32:49;;;;;;;68.77;25.10;;;;;2.60;97186.00;;;;8332476;28;20210;-71
2022/12/19 12:37:32;;;;;;;67.93;23.53;;;;;2.60;97175.00;;;;8331765;28;20204;-69
2022/12/19 12:42:05;;;;;;;66.73;23.17;;;;;2.70;97171.00;;;;8333391;28;20195;-69
2022/12/19 12:46:34;;;;;;;74.00;29.93;;;;;2.60;97169.00;;;;8331245;28;20205;-70
2022/12/19 12:51:09;;;;;;;71.03;32.53;;;;;2.70;97196.00;;;;8331794;28;20201;-69
2022/12/19 12:55:44;;;;;;;60.37;26.57;;;;;2.70;97182.00;;;;8335385;28;20275;-69
2022/12/19 13:00:22;;;;;;;59.70;24.80;;;;;2.90;97155.00;;;;8363652;28;20200;-70
2022/12/19 13:04:55;;;;;;;65.73;25.50;;;;;3.00;97163.00;;;;8365194;28;20625;-69
2022/12/19 13:09:29;;;;;;;73.83;35.20;;;;;2.90;97160.00;;;;8365272;28;20195;-69
2022/12/19 13:14:29;;;;;;;63.77;31.07;;;;;2.80;97164.00;;;;8363764;28;20269;-70
2022/12/19 13:19:16;;;;;;;59.00;21.63;;;;;2.70;97155.00;;;;8364686;28;20620;-69
2022/12/19 13:24:12;;;;;;;69.70;27.07;;;;;2.50;97159.00;;;;8364157;28;20192;-68
2022/12/19 13:28:52;;;;;;;76.03;27.73;;;;;2.40;97134.00;;;;8363889;28;20199;-68
2022/12/19 13:33:29;;;;;;;67.03;25.73;;;;;2.40;97136.00;;;;8364531;28;20287;-68
2022/12/19 13:38:20;;;;;;;61.77;23.57;;;;;2.30;97146.00;;;;8364150;28;20581;-67
2022/12/19 13:47:23;;;;;;;62.90;22.43;;;;;2.30;97148.00;;;;8198458;29;20199;-67
2022/12/19 13:51:57;;;;;;;62.27;23.40;;;;;2.20;97138.00;;;;8345901;28;20202;-67
2022/12/19 13:56:38;;;;;;;60.67;23.80;;;;;2.10;97121.00;;;;8363884;28;20618;-67
2022/12/19 14:01:14;;;;;;;67.60;24.80;;;;;2.20;97122.00;;;;8363460;28;20256;-67
2022/12/19 14:05:45;;;;;;;70.03;25.17;;;;;2.10;97128.00;;;;8363501;28;20677;-67
2022/12/19 14:10:25;;;;;;;53.33;21.97;;;;;2.00;97132.00;;;;8363471;28;20206;-67
2022/12/19 14:15:15;;;;;;;57.37;21.83;;;;;1.90;97136.00;;;;8364725;28;20729;-68
2022/12/19 14:19:39;;;;;;;63.10;23.87;;;;;1.80;97148.00;;;;8363933;28;20623;-68
2022/12/19 14:24:11;;;;;;;56.90;22.77;;;;;1.80;97142.00;;;;8363629;28;20690;-68
2022/12/19 14:28:48;;;;;;;58.07;23.87;;;;;1.80;97151.00;;;;8364626;28;20200;-68
2022/12/19 14:33:27;;;;;;;114.87;54.40;;;;;1.70;97156.00;;;;8368359;28;20189;-68
2022/12/19 14:38:02;;;;;;;101.67;39.47;;;;;1.70;97149.00;;;;8369043;28;20198;-68
2022/12/19 14:53:08;;;;;;;67.93;26.93;;;;;1.60;97132.00;;;;8369280;28;20507;-68
2022/12/19 14:58:09;;;;;;;71.63;33.77;;;;;1.60;97133.00;;;;8368429;28;20209;-68
2022/12/19 15:02:47;;;;;;;69.23;30.03;;;;;1.50;97138.00;;;;8368489;28;20219;-68
2022/12/19 15:07:26;;;;;;;72.57;30.80;;;;;1.40;97118.00;;;;8367984;28;20198;-68
2022/12/19 15:17:29;;;;;;;77.43;30.73;;;;;1.20;97104.00;;;;8368253;28;20218;-68
2022/12/19 15:22:03;;;;;;;69.83;28.07;;;;;1.20;97111.00;;;;8368454;28;20202;-68
2022/12/19 15:26:46;;;;;;;70.00;26.30;;;;;1.10;97116.00;;;;8367883;28;20287;-68
2022/12/19 15:31:25;;;;;;;63.17;23.67;;;;;1.10;97128.00;;;;8368304;28;20197;-68
2022/12/19 15:35:53;;;;;;;60.80;22.80;;;;;1.00;97118.00;;;;8365122;28;20225;-68
2022/12/19 15:40:30;;;;;;;63.87;24.73;;;;;1.00;97124.00;;;;8366779;28;20252;-67
2022/12/19 15:45:06;;;;;;;63.93;25.37;;;;;0.90;97134.00;;;;8366812;28;20191;-67
2022/12/19 15:49:44;;;;;;;64.33;24.87;;;;;0.90;97131.00;;;;8365902;28;20195;-67
2022/12/19 15:54:24;;;;;;;65.83;23.47;;;;;0.80;97123.00;;;;8365986;28;20202;-67
2022/12/19 15:59:01;;;;;;;71.30;24.40;;;;;0.70;97126.00;;;;8366592;28;20198;-67
2022/12/19 16:03:33;;;;;;;64.73;23.40;;;;;0.70;97120.00;;;;8366268;28;20554;-67
2022/12/19 16:08:11;;;;;;;69.50;24.77;;;;;0.70;97119.00;;;;8366355;28;20202;-67
2022/12/19 16:12:46;;;;;;;62.53;22.77;;;;;0.70;97120.00;;;;8364786;28;20248;-66
2022/12/19 16:17:23;;;;;;;66.20;25.33;;;;;0.80;97119.00;;;;8365972;28;20593;-66
2022/12/19 16:21:56;;;;;;;65.33;24.07;;;;;0.80;97117.00;;;;8366379;28;20233;-67
2022/12/19 16:26:35;;;;;;;63.27;24.13;;;;;0.80;97111.00;;;;8366024;28;20232;-66
2022/12/19 16:31:13;;;;;;;69.47;25.13;;;;;0.80;97112.00;;;;8362460;28;20596;-67
2022/12/19 16:35:45;;;;;;;60.30;22.97;;;;;0.90;97123.00;;;;8365624;28;20284;-67
2022/12/19 16:40:52;;;;;;;62.27;23.13;;;;;0.90;97126.00;;;;8364584;28;20201;-67
2022/12/19 16:45:32;;;;;;;59.53;22.13;;;;;0.90;97108.00;;;;8365175;28;20299;-67
2022/12/19 16:50:11;;;;;;;79.30;30.83;;;;;0.90;97104.00;;;;8363210;28;20270;-68
2022/12/19 16:54:42;;;;;;;1000.77;462.87;;;;;0.90;97097.00;;;;8364528;28;20198;-71
2022/12/19 16:59:21;;;;;;;174.50;69.47;;;;;0.90;97111.00;;;;8365895;28;20198;-70
2022/12/19 17:03:56;;;;;;;256.03;88.77;;;;;0.90;97092.00;;;;8365187;28;20658;-71
2022/12/19 17:08:00;;;;;;;201.33;60.83;;;;;0.90;97096.00;;;;8365008;28;20272;-71
2022/12/19 17:12:34;;;;;;;193.70;107.90;;;;;0.90;97100.00;;;;8364483;28;20584;-71
2022/12/19 17:17:15;;;;;;;70.97;27.63;;;;;0.80;97085.00;;;;8373953;28;20227;-72
2022/12/19 17:21:24;;;;;;;70.43;30.73;;;;;0.70;97083.00;;;;8363825;28;20233;-71
2022/12/19 17:25:28;;;;;;;66.33;26.03;;;;;0.60;97080.00;;;;8364537;28;20207;-73
2022/12/19 17:29:31;;;;;;;71.07;27.27;;;;;0.60;97076.00;;;;8365117;28;20202;-71
2022/12/19 17:33:36;;;;;;;76.90;36.73;;;;;0.60;97076.00;;;;8364035;28;20581;-71
2022/12/19 17:38:12;;;;;;;64.90;24.83;;;;;0.60;97070.00;;;;8363459;28;20224;-71
2022/12/19 17:42:20;;;;;;;66.63;25.57;;;;;0.60;97066.00;;;;8365609;28;20193;-71
2022/12/19 17:46:24;;;;;;;64.53;24.30;;;;;0.50;97073.00;;;;8364042;28;20202;-71
2022/12/19 17:50:58;;;;;;;67.57;25.87;;;;;0.50;97063.00;;;;8364171;28;20597;-71
2022/12/19 17:55:13;;;;;;;57.83;25.07;;;;;0.50;97067.00;;;;8365231;28;20281;-70
2022/12/19 17:59:16;;;;;;;67.70;24.23;;;;;0.60;97076.00;;;;8363839;28;20596;-71
2022/12/19 18:03:54;;;;;;;65.53;24.67;;;;;0.60;97074.00;;;;8363649;28;20225;-71
2022/12/19 18:07:58;;;;;;;69.33;25.80;;;;;0.70;97062.00;;;;8370516;28;20240;-70
2022/12/19 18:12:02;;;;;;;69.67;25.33;;;;;0.70;97062.00;;;;8370577;28;20224;-71
2022/12/19 18:16:11;;;;;;;64.67;24.87;;;;;0.70;97058.00;;;;8369987;28;20253;-72
2022/12/19 18:20:18;;;;;;;61.20;24.60;;;;;0.70;97036.00;;;;8370886;28;20203;-71
2022/12/19 18:24:22;;;;;;;65.33;25.67;;;;;0.70;97040.00;;;;8369589;28;20261;-71
2022/12/19 18:28:26;;;;;;;72.63;24.90;;;;;0.70;97059.00;;;;8370762;28;20202;-71
2022/12/19 18:32:29;;;;;;;62.23;23.87;;;;;0.80;97063.00;;;;8366788;28;20666;-71
2022/12/19 18:36:37;;;;;;;59.43;23.27;;;;;0.70;97065.00;;;;8369016;28;20227;-70
2022/12/19 18:41:09;;;;;;;65.57;22.97;;;;;0.70;97050.00;;;;8370366;28;20207;-70
2022/12/19 18:45:48;;;;;;;58.57;23.30;;;;;0.70;97051.00;;;;8366772;28;20203;-71
2022/12/19 18:50:23;;;;;;;60.07;22.60;;;;;0.60;97047.00;;;;8367350;28;20197;-73
2022/12/19 18:55:00;;;;;;;64.63;23.23;;;;;0.50;97054.00;;;;8368429;28;20201;-69
2022/12/19 18:59:37;;;;;;;67.70;24.67;;;;;0.40;97038.00;;;;8369229;28;20638;-69
2022/12/19 19:04:12;;;;;;;58.03;23.90;;;;;0.40;97063.00;;;;8367090;28;20229;-69
2022/12/19 19:08:50;;;;;;;68.60;23.57;;;;;0.30;97067.00;;;;8368970;28;20193;-70
2022/12/19 19:13:27;;;;;;;60.90;23.03;;;;;0.30;97070.00;;;;8367403;28;20202;-70
2022/12/19 19:18:05;;;;;;;59.17;23.03;;;;;0.20;97060.00;;;;8366640;28;20229;-69
2022/12/19 19:22:39;;;;;;;64.50;25.70;;;;;0.20;97064.00;;;;8368704;28;20240;-70
2022/12/19 19:27:17;;;;;;;65.37;23.60;;;;;0.20;97081.00;;;;8366192;28;20230;-69
2022/12/19 19:31:51;;;;;;;61.53;22.47;;;;;0.10;97083.00;;;;8368124;28;20687;-69
2022/12/19 19:36:28;;;;;;;58.50;22.23;;;;;0.00;97084.00;;;;8367165;28;20717;-70
2022/12/19 19:41:05;;;;;;;60.47;22.70;;;;;0.00;97078.00;;;;8367725;28;20507;-70
2022/12/19 19:45:43;;;;;;;67.27;23.03;;;;;0.00;97082.00;;;;8366905;28;20195;-69
2022/12/19 19:50:17;;;;;;;62.07;23.33;;;;;-0.10;97075.00;;;;8367811;28;20247;-70
2022/12/19 19:54:54;;;;;;;62.03;23.83;;;;;-0.10;97075.00;;;;8366327;28;20194;-69
2022/12/19 19:59:31;;;;;;;67.47;24.60;;;;;-0.20;97079.00;;;;8366215;28;20329;-70
2022/12/19 20:04:10;;;;;;;62.23;24.50;;;;;-0.30;97076.00;;;;8366660;28;20561;-70
2022/12/19 20:08:43;;;;;;;59.77;23.80;;;;;-0.30;97067.00;;;;8366796;28;20197;-70
2022/12/19 20:13:20;;;;;;;65.17;24.63;;;;;-0.40;97069.00;;;;8364878;28;20231;-69
2022/12/19 20:17:57;;;;;;;58.30;22.73;;;;;-0.40;97068.00;;;;8365562;28;20317;-69
2022/12/19 20:22:36;;;;;;;65.17;24.27;;;;;-0.40;97062.00;;;;8366225;28;20621;-70
2022/12/19 20:27:10;;;;;;;63.57;23.10;;;;;-0.40;97061.00;;;;8365055;28;20202;-70
2022/12/19 20:31:47;;;;;;;63.80;24.00;;;;;-0.40;97061.00;;;;8365736;28;20643;-71
2022/12/19 20:36:25;;;;;;;60.87;24.53;;;;;-0.40;97052.00;;;;8365260;28;20214;-70
2022/12/19 20:41:01;;;;;;;61.67;22.70;;;;;-0.30;97052.00;;;;8365406;28;20627;-71
2022/12/19 20:45:39;;;;;;;59.83;23.97;;;;;-0.20;97066.00;;;;8365567;28;20590;-70
2022/12/19 20:50:17;;;;;;;64.13;22.97;;;;;-0.10;97072.00;;;;8365432;28;20628;-70
2022/12/19 20:54:53;;;;;;;57.57;22.37;;;;;0.00;97054.00;;;;8364660;28;20245;-70
2022/12/19 20:59:30;;;;;;;57.20;22.53;;;;;0.00;97044.00;;;;8365680;28;20220;-70
2022/12/19 21:04:09;;;;;;;55.87;23.03;;;;;0.00;97061.00;;;;8364627;28;20730;-70
2022/12/19 21:08:43;;;;;;;62.70;24.30;;;;;0.10;97063.00;;;;8365196;28;20541;-70
2022/12/19 21:13:17;;;;;;;62.23;22.67;;;;;0.10;97064.00;;;;8363822;28;20234;-70
2022/12/19 21:17:54;;;;;;;57.50;24.20;;;;;0.20;97059.00;;;;8364990;28;20686;-70
2022/12/19 21:22:32;;;;;;;59.47;21.73;;;;;0.20;97057.00;;;;8364563;28;20196;-70
2022/12/19 21:27:06;;;;;;;58.97;23.27;;;;;0.20;97058.00;;;;8364596;28;20576;-70
2022/12/19 21:31:43;;;;;;;60.87;23.60;;;;;0.20;97053.00;;;;8364903;28;20205;-70
2022/12/19 21:35:46;;;;;;;61.07;22.90;;;;;0.30;97052.00;;;;8364149;28;20208;-70
2022/12/19 21:39:50;;;;;;;60.03;23.17;;;;;0.20;97048.00;;;;8365715;28;20236;-70
2022/12/19 21:43:55;;;;;;;58.37;22.53;;;;;0.20;97031.00;;;;8371256;28;20194;-70
2022/12/19 21:48:34;;;;;;;58.93;22.53;;;;;0.30;97042.00;;;;8369464;28;20197;-70
2022/12/19 21:53:09;;;;;;;62.47;23.80;;;;;0.30;97042.00;;;;8370280;28;20653;-71
2022/12/19 21:57:47;;;;;;;54.97;22.80;;;;;0.30;97053.00;;;;8371407;28;20220;-70
2022/12/19 22:02:21;;;;;;;52.30;21.67;;;;;0.30;97046.00;;;;8370344;28;20233;-68
2022/12/19 22:06:58;;;;;;;60.13;23.97;;;;;0.30;97042.00;;;;8369628;28;20252;-68
2022/12/19 22:11:01;;;;;;;59.73;22.90;;;;;0.30;97039.00;;;;8369568;28;20201;-68
2022/12/19 22:15:07;;;;;;;61.27;23.83;;;;;0.30;97022.00;;;;8370554;28;20220;-69
2022/12/19 22:19:44;;;;;;;54.60;23.37;;;;;0.30;97004.00;;;;8368962;28;20230;-68
2022/12/19 22:23:47;;;;;;;58.60;23.63;;;;;0.30;97011.00;;;;8370352;28;20202;-68
2022/12/19 22:27:50;;;;;;;60.13;24.40;;;;;0.30;97014.00;;;;8369104;28;20198;-68